Time;durP1;ratioP1;P1;durP2;ratioP2;P2;SDS_P1;SDS_P2;PMS_P1;PMS_P2;Temp;Humidity;BMP_temperature;BMP_pressure;BME280_temperature;BME280_humidity;BME280_pressure;Samples;Min_cycle;Max_cycle;Signal;HPM_P1;HPM_P2
2022/03/29 00:00:17;;;;;;;16.55;6.65;;;;;;;9.23;37.68;98678.50;1769361;81;20961;-69
2022/03/29 00:02:47;;;;;;;17.55;8.00;;;;;;;9.21;37.64;98674.72;1750926;81;21045;-71
2022/03/29 00:05:15;;;;;;;16.77;7.80;;;;;;;9.19;37.48;98668.77;1770078;81;20985;-71
2022/03/29 00:07:45;;;;;;;14.00;7.47;;;;;;;9.17;37.45;98664.16;1770288;80;21100;-69
2022/03/29 00:10:12;;;;;;;14.85;6.95;;;;;;;9.14;37.40;98664.84;1769723;81;21510;-72
2022/03/29 00:12:41;;;;;;;17.00;7.72;;;;;;;9.12;37.42;98656.11;1770133;81;20846;-71
2022/03/29 00:15:08;;;;;;;16.65;8.00;;;;;;;9.09;37.24;98655.41;1769874;81;20878;-69
2022/03/29 00:17:38;;;;;;;15.00;8.15;;;;;;;9.08;37.26;98650.47;1775237;80;21490;-70
2022/03/29 00:20:08;;;;;;;17.20;7.60;;;;;;;9.08;37.02;98657.89;1769125;81;21938;-69
2022/03/29 00:22:36;;;;;;;19.20;7.78;;;;;;;9.08;36.97;98650.47;1770268;81;21498;-70
2022/03/29 00:25:07;;;;;;;17.45;8.98;;;;;;;9.06;36.91;98645.86;1770005;81;21029;-69
2022/03/29 00:27:37;;;;;;;16.73;8.25;;;;;;;9.05;36.96;98656.62;1770498;81;21001;-71
2022/03/29 00:30:07;;;;;;;20.75;8.78;;;;;;;9.01;36.92;98645.48;1769966;81;20994;-70
2022/03/29 00:32:40;;;;;;;22.32;8.60;;;;;;;8.98;36.89;98641.22;1767103;81;20905;-71
2022/03/29 00:35:09;;;;;;;19.05;8.35;;;;;;;8.94;36.83;98641.07;1770109;81;20981;-71
2022/03/29 00:37:37;;;;;;;17.30;7.90;;;;;;;8.92;36.88;98636.50;1770047;81;20914;-71
2022/03/29 00:40:08;;;;;;;18.85;8.45;;;;;;;8.90;36.80;98640.14;1770341;81;20964;-70
2022/03/29 00:42:35;;;;;;;19.20;8.80;;;;;;;8.86;36.79;98636.42;1770432;81;20985;-70
2022/03/29 00:45:05;;;;;;;22.00;9.33;;;;;;;8.84;36.68;98638.13;1769700;81;21161;-71
2022/03/29 00:47:32;;;;;;;19.50;9.70;;;;;;;8.84;36.72;98629.08;1776096;80;20886;-71
2022/03/29 00:50:01;;;;;;;16.02;9.38;;;;;;;8.80;36.65;98626.77;1768321;81;20954;-70
2022/03/29 00:52:29;;;;;;;27.95;9.38;;;;;;;8.78;36.66;98627.09;1761175;81;20918;-71
2022/03/29 00:54:56;;;;;;;24.40;9.53;;;;;;;8.76;36.62;98627.43;1764085;80;20982;-70
2022/03/29 00:57:25;;;;;;;17.02;9.35;;;;;;;8.75;36.70;98632.67;1738863;81;21061;-72
2022/03/29 00:59:52;;;;;;;19.10;9.20;;;;;;;8.73;36.62;98624.53;1764576;81;21004;-71
2022/03/29 01:02:25;;;;;;;23.50;9.98;;;;;;;8.72;36.65;98618.78;1764471;81;21479;-69
2022/03/29 01:04:52;;;;;;;22.93;9.48;;;;;;;8.70;36.67;98618.33;1764552;80;21048;-70
2022/03/29 01:07:20;;;;;;;27.15;10.03;;;;;;;8.65;36.57;98622.05;1764921;80;20990;-72
2022/03/29 01:09:54;;;;;;;24.82;8.90;;;;;;;8.62;36.66;98615.28;1764252;81;21087;-70
2022/03/29 01:12:28;;;;;;;22.52;10.15;;;;;;;8.59;36.75;98620.63;1764402;81;20993;-73
2022/03/29 01:14:55;;;;;;;30.20;11.33;;;;;;;8.58;36.75;98619.02;1764517;81;20990;-70
2022/03/29 01:17:43;;;;;;;18.23;9.78;;;;;;;8.55;36.67;98617.73;1760653;81;20918;-71
2022/03/29 01:20:14;;;;;;;21.25;9.55;;;;;;;8.56;36.64;98613.05;1766993;81;20827;-70
2022/03/29 01:22:44;;;;;;;29.77;10.63;;;;;;;8.57;36.75;98613.27;1764458;81;21834;-71
2022/03/29 01:25:20;;;;;;;24.12;9.90;;;;;;;8.54;36.71;98603.73;1764845;81;21404;-71
2022/03/29 01:27:51;;;;;;;20.55;10.13;;;;;;;8.55;36.67;98601.81;1764327;81;20910;-70
2022/03/29 01:30:19;;;;;;;23.42;10.45;;;;;;;8.58;36.68;98597.05;1764486;81;21403;-70
2022/03/29 01:32:50;;;;;;;23.35;10.95;;;;;;;8.57;36.67;98592.13;1743521;81;20914;-72
2022/03/29 01:35:21;;;;;;;15.43;8.80;;;;;;;8.58;36.63;98582.73;1764847;81;21100;-72
2022/03/29 01:37:54;;;;;;;18.85;10.20;;;;;;;8.60;36.63;98590.09;1736622;81;20930;-69
2022/03/29 01:40:25;;;;;;;22.00;10.32;;;;;;;8.59;36.68;98580.25;1764805;81;20910;-71
2022/03/29 01:45:37;;;;;;;20.17;10.05;;;;;;;8.57;36.73;98584.45;1764398;81;20902;-71
2022/03/29 01:48:04;;;;;;;21.68;10.43;;;;;;;8.57;36.71;98590.75;1764526;81;21743;-71
2022/03/29 01:50:32;;;;;;;24.95;11.08;;;;;;;8.58;36.68;98580.58;1766644;80;20917;-71
2022/03/29 01:53:04;;;;;;;23.07;11.03;;;;;;;8.58;36.71;98588.23;1773930;80;20882;-72
2022/03/29 01:55:30;;;;;;;20.80;9.95;;;;;;;8.58;36.70;98580.58;1770182;81;21434;-71
2022/03/29 01:58:05;;;;;;;27.52;10.78;;;;;;;8.57;36.70;98582.52;1767209;80;20990;-72
2022/03/29 02:00:48;;;;;;;18.75;10.15;;;;;;;8.57;36.68;98583.88;1770607;80;21100;-68
2022/03/29 02:03:05;;;;;;;23.15;10.82;;;;;;;8.54;36.67;98577.66;1762258;80;20881;-72
2022/03/29 02:05:37;;;;;;;25.30;10.38;;;;;;;8.54;36.67;98580.41;1770398;81;21537;-72
2022/03/29 02:08:07;;;;;;;23.98;11.03;;;;;;;8.55;36.78;98574.34;1770440;81;20992;-69
2022/03/29 02:10:35;;;;;;;25.27;11.60;;;;;;;8.52;36.74;98575.80;1770149;81;20926;-70
2022/03/29 02:13:01;;;;;;;23.27;10.78;;;;;;;8.49;36.89;98569.59;1770418;81;21132;-72
2022/03/29 02:15:39;;;;;;;23.60;11.53;;;;;;;8.43;36.97;98573.08;1768993;81;21422;-70
2022/03/29 02:18:09;;;;;;;27.70;10.95;;;;;;;8.38;36.99;98574.63;1770021;81;20842;-71
2022/03/29 02:20:38;;;;;;;22.82;11.70;;;;;;;8.36;37.11;98572.80;1750057;81;20886;-71
2022/03/29 02:23:09;;;;;;;26.57;11.43;;;;;;;8.32;37.25;98565.79;1750602;81;20906;-71
2022/03/29 02:25:36;;;;;;;23.30;11.75;;;;;;;8.30;37.28;98564.49;1770026;81;21774;-71
2022/03/29 02:28:08;;;;;;;28.15;13.03;;;;;;;8.28;37.30;98558.77;1770139;81;20874;-71
2022/03/29 02:30:36;;;;;;;24.10;11.93;;;;;;;8.27;37.45;98556.36;1769980;81;20965;-69
2022/03/29 02:33:12;;;;;;;26.05;12.50;;;;;;;8.24;37.54;98559.18;1766430;81;20994;-70
2022/03/29 02:35:41;;;;;;;20.90;11.80;;;;;;;8.20;37.69;98561.54;1769831;81;21396;-68
2022/03/29 02:38:11;;;;;;;21.85;11.85;;;;;;;8.14;37.80;98552.11;1769639;81;21904;-71
2022/03/29 02:40:38;;;;;;;25.77;11.65;;;;;;;8.11;37.84;98545.09;1770164;81;21383;-72
2022/03/29 02:43:05;;;;;;;26.00;12.63;;;;;;;8.12;37.93;98552.22;1770149;81;21033;-69
2022/03/29 02:45:32;;;;;;;27.10;13.88;;;;;;;8.12;37.90;98551.63;1770159;81;20972;-72
2022/03/29 02:48:05;;;;;;;23.60;12.80;;;;;;;8.12;37.95;98549.47;1766855;81;21526;-72
2022/03/29 02:50:32;;;;;;;23.52;12.70;;;;;;;8.11;38.02;98551.95;1769843;81;21142;-67
2022/03/29 02:53:01;;;;;;;28.62;13.15;;;;;;;8.09;38.14;98555.03;1770106;81;21475;-69
2022/03/29 02:55:30;;;;;;;28.07;13.08;;;;;;;8.04;38.19;98549.16;1750955;81;21443;-71
2022/03/29 02:58:03;;;;;;;28.07;13.22;;;;;;;8.01;38.35;98553.12;1766974;81;20895;-67
2022/03/29 03:00:30;;;;;;;29.82;13.68;;;;;;;7.97;38.47;98556.26;1770385;81;21001;-70
2022/03/29 03:02:57;;;;;;;30.00;12.95;;;;;;;7.93;38.58;98547.91;1770333;81;21794;-69
2022/03/29 03:05:26;;;;;;;33.05;14.38;;;;;;;7.90;38.69;98550.72;1769904;81;20913;-69
2022/03/29 03:07:53;;;;;;;26.48;13.75;;;;;;;7.90;38.75;98549.34;1770050;81;21044;-68
2022/03/29 03:10:21;;;;;;;26.12;13.62;;;;;;;7.88;38.76;98546.12;1770197;81;20993;-68
2022/03/29 03:12:50;;;;;;;24.75;14.23;;;;;;;7.87;38.88;98553.30;1770238;81;21396;-68
2022/03/29 03:15:22;;;;;;;27.62;13.15;;;;;;;7.84;38.97;98541.06;1770649;80;21276;-71
2022/03/29 03:17:55;;;;;;;26.52;13.98;;;;;;;7.82;39.06;98542.50;1769921;81;20939;-69
2022/03/29 03:20:26;;;;;;;28.32;12.65;;;;;;;7.82;39.16;98543.31;1769802;81;21509;-71
2022/03/29 03:22:54;;;;;;;25.80;14.15;;;;;;;7.82;39.25;98549.36;1770078;81;21004;-69
2022/03/29 03:25:21;;;;;;;29.50;14.23;;;;;;;7.78;39.37;98545.90;1770122;81;20921;-71
2022/03/29 03:27:50;;;;;;;22.10;12.85;;;;;;;7.76;39.41;98544.04;1769843;80;20846;-70
2022/03/29 03:30:17;;;;;;;30.25;14.25;;;;;;;7.73;39.57;98550.17;1770135;81;20913;-71
2022/03/29 03:32:48;;;;;;;27.07;15.25;;;;;;;7.71;39.67;98543.42;1770154;81;20926;-71
2022/03/29 03:35:18;;;;;;;25.08;13.83;;;;;;;7.69;39.75;98542.38;1770421;81;21302;-69
2022/03/29 03:37:47;;;;;;;26.48;14.20;;;;;;;7.70;39.77;98541.79;1769916;81;21025;-71
2022/03/29 03:40:13;;;;;;;38.05;15.18;;;;;;;7.71;39.83;98538.72;1749394;81;21210;-71
2022/03/29 03:42:42;;;;;;;29.15;14.18;;;;;;;7.71;39.86;98539.30;1775801;80;21446;-71
2022/03/29 03:45:13;;;;;;;24.37;13.93;;;;;;;7.71;39.99;98542.84;1769698;81;20976;-68
2022/03/29 03:47:40;;;;;;;30.97;15.23;;;;;;;7.69;40.12;98538.27;1770117;81;20949;-69
2022/03/29 03:50:12;;;;;;;29.50;13.80;;;;;;;7.67;40.21;98540.52;1769626;81;20874;-70
2022/03/29 03:52:39;;;;;;;25.35;12.95;;;;;;;7.66;40.25;98534.22;1764314;81;21836;-69
2022/03/29 03:55:10;;;;;;;28.67;13.43;;;;;;;7.67;40.28;98528.99;1764003;81;20926;-70
2022/03/29 03:57:37;;;;;;;28.70;14.55;;;;;;;7.68;40.42;98535.27;1764697;80;20945;-71
2022/03/29 04:00:10;;;;;;;25.40;14.30;;;;;;;7.69;40.49;98531.97;1762227;81;20998;-70
2022/03/29 04:02:42;;;;;;;26.82;13.70;;;;;;;7.68;40.57;98539.38;1764508;81;20909;-69
2022/03/29 04:05:12;;;;;;;26.07;12.82;;;;;;;7.68;40.63;98539.38;1764440;81;21700;-69
2022/03/29 04:07:41;;;;;;;26.10;14.25;;;;;;;7.68;40.78;98532.52;1764373;81;20874;-69
2022/03/29 04:10:09;;;;;;;31.85;13.62;;;;;;;7.68;40.81;98535.27;1764552;81;20909;-70
2022/03/29 04:12:40;;;;;;;29.02;13.08;;;;;;;7.68;40.89;98535.27;1764846;80;21443;-69
2022/03/29 04:15:10;;;;;;;24.57;12.93;;;;;;;7.72;40.92;98538.16;1764605;81;20906;-69
2022/03/29 04:17:40;;;;;;;25.92;13.08;;;;;;;7.73;40.99;98537.84;1764256;81;20886;-69
2022/03/29 04:20:10;;;;;;;28.55;13.48;;;;;;;7.74;41.10;98538.66;1764534;80;20834;-69
2022/03/29 04:22:38;;;;;;;25.37;13.05;;;;;;;7.75;41.17;98536.14;1764535;81;20954;-70
2022/03/29 04:25:10;;;;;;;25.57;13.58;;;;;;;7.77;41.24;98541.55;1739603;81;21517;-68
2022/03/29 04:27:37;;;;;;;25.30;12.33;;;;;;;7.79;41.21;98538.48;1764976;80;21005;-69
2022/03/29 04:30:08;;;;;;;28.40;13.95;;;;;;;7.81;41.26;98538.16;1764050;80;21480;-71
2022/03/29 04:32:38;;;;;;;31.95;15.32;;;;;;;7.84;41.40;98547.10;1743835;81;21422;-71
2022/03/29 04:35:07;;;;;;;24.55;12.60;;;;;;;7.85;41.27;98545.95;1764908;80;20997;-71
2022/03/29 04:37:35;;;;;;;24.05;12.80;;;;;;;7.88;41.39;98541.22;1764700;81;20957;-69
2022/03/29 04:40:09;;;;;;;29.00;13.65;;;;;;;7.92;41.41;98543.53;1763953;81;21088;-69
2022/03/29 04:42:44;;;;;;;24.98;12.68;;;;;;;7.96;41.49;98542.31;1764537;81;21014;-71
2022/03/29 04:45:19;;;;;;;22.23;11.47;;;;;;;7.99;41.64;98534.80;1761501;81;20909;-71
2022/03/29 04:47:51;;;;;;;23.67;12.07;;;;;;;8.01;41.60;98538.84;1764641;81;21255;-71
2022/03/29 04:50:17;;;;;;;33.08;12.37;;;;;;;8.09;41.79;98547.36;1764629;81;21447;-71
2022/03/29 04:53:00;;;;;;;24.82;13.58;;;;;;;8.14;41.92;98536.20;1764191;81;20834;-69
2022/03/29 04:55:28;;;;;;;26.85;12.90;;;;;;;8.24;41.82;98544.09;1764882;81;21617;-71
2022/03/29 04:58:05;;;;;;;23.07;12.50;;;;;;;8.35;41.86;98543.17;1761783;81;21001;-72
2022/03/29 05:00:37;;;;;;;25.43;12.28;;;;;;;8.48;41.65;98537.77;1764963;81;20934;-72
2022/03/29 05:03:10;;;;;;;20.65;11.70;;;;;;;8.60;41.61;98546.15;1764715;80;21021;-71
2022/03/29 05:05:37;;;;;;;21.77;11.97;;;;;;;8.71;41.42;98538.91;1764450;81;20917;-68
2022/03/29 05:08:16;;;;;;;24.18;13.38;;;;;;;8.80;41.45;98539.68;1760824;80;20918;-68
2022/03/29 05:10:50;;;;;;;23.55;12.23;;;;;;;8.88;41.35;98541.57;1764429;81;20932;-72
2022/03/29 05:13:20;;;;;;;40.17;13.75;;;;;;;8.99;41.13;98540.59;1764682;81;20993;-72
2022/03/29 05:15:51;;;;;;;25.48;13.25;;;;;;;9.10;41.31;98540.20;1763552;81;20878;-69
2022/03/29 05:18:26;;;;;;;22.82;12.58;;;;;;;9.23;41.20;98536.39;1767596;81;21497;-71
2022/03/29 05:20:55;;;;;;;25.85;11.00;;;;;;;9.33;41.04;98550.30;1764578;80;20953;-70
2022/03/29 05:23:31;;;;;;;23.52;12.90;;;;;;;9.39;41.00;98546.78;1761207;81;20965;-73
2022/03/29 05:25:59;;;;;;;24.35;11.88;;;;;;;9.43;41.14;98551.86;1764679;81;20878;-70
2022/03/29 05:28:29;;;;;;;26.12;12.30;;;;;;;9.44;40.99;98543.83;1764497;81;20958;-71
2022/03/29 05:30:59;;;;;;;27.35;11.83;;;;;;;9.46;40.96;98550.38;1764385;81;21037;-73
2022/03/29 05:33:27;;;;;;;28.73;13.90;;;;;;;9.48;41.19;98548.88;1764494;81;21478;-71
2022/03/29 05:35:57;;;;;;;31.40;12.55;;;;;;;9.55;41.38;98553.05;1764410;81;20976;-73
2022/03/29 05:38:29;;;;;;;32.03;14.58;;;;;;;9.61;41.00;98547.56;1764838;81;21493;-68
2022/03/29 05:40:58;;;;;;;29.45;12.55;;;;;;;9.65;40.98;98540.27;1763571;81;21474;-72
2022/03/29 05:43:26;;;;;;;29.85;13.08;;;;;;;9.68;41.07;98542.33;1764812;81;21485;-72
2022/03/29 05:48:56;;;;;;;30.97;13.15;;;;;;;9.78;41.12;98543.04;1764791;81;20874;-70
2022/03/29 05:51:35;;;;;;;26.95;13.35;;;;;;;9.85;41.16;98535.05;1765666;80;21071;-69
2022/03/29 05:54:04;;;;;;;27.75;13.40;;;;;;;9.93;41.48;98534.74;1775942;80;21044;-72
2022/03/29 05:56:31;;;;;;;25.80;13.48;;;;;;;10.05;41.59;98536.69;1750536;81;21394;-72
2022/03/29 05:58:58;;;;;;;29.25;12.10;;;;;;;10.19;41.31;98536.38;1769761;81;21135;-72
2022/03/29 06:01:25;;;;;;;21.73;13.10;;;;;;;10.31;41.20;98541.11;1770137;81;20989;-71
2022/03/29 06:03:59;;;;;;;26.05;12.75;;;;;;;10.43;41.31;98536.19;1775571;80;20969;-70
2022/03/29 06:06:25;;;;;;;27.50;14.10;;;;;;;10.54;41.10;98536.58;1770079;81;21564;-71
2022/03/29 06:08:53;;;;;;;26.85;12.78;;;;;;;10.62;41.19;98537.59;1770046;81;20893;-69
2022/03/29 06:11:21;;;;;;;34.25;11.90;;;;;;;10.78;40.98;98541.86;1766299;81;20934;-71
2022/03/29 06:13:48;;;;;;;26.02;13.70;;;;;;;10.91;40.98;98546.20;1770264;81;20927;-70
2022/03/29 06:16:16;;;;;;;20.80;11.88;;;;;;;11.05;40.85;98537.55;1770250;81;21041;-77
2022/03/29 06:18:44;;;;;;;27.87;13.38;;;;;;;11.18;41.17;98545.80;1770236;81;21004;-73
2022/03/29 06:21:10;;;;;;;23.30;12.47;;;;;;;11.28;40.42;98541.19;1770253;81;20878;-74
2022/03/29 06:23:40;;;;;;;22.90;11.78;;;;;;;11.30;40.36;98532.56;1770257;81;20838;-76
2022/03/29 06:26:19;;;;;;;23.65;12.23;;;;;;;11.29;40.55;98535.11;1769779;81;20886;-74
2022/03/29 06:28:46;;;;;;;28.35;12.25;;;;;;;11.30;40.65;98529.81;1769116;81;21510;-75
2022/03/29 06:31:12;;;;;;;25.23;12.63;;;;;;;11.30;40.83;98529.23;1770265;81;20917;-76
2022/03/29 06:33:39;;;;;;;29.12;13.28;;;;;;;11.31;40.68;98532.21;1770266;81;21571;-77
2022/03/29 06:36:06;;;;;;;23.65;11.25;;;;;;;11.32;40.90;98534.41;1770216;81;21278;-71
2022/03/29 06:38:33;;;;;;;33.30;14.10;;;;;;;11.34;40.80;98534.05;1769930;81;21008;-70
2022/03/29 06:44:10;;;;;;;27.77;12.35;;;;;;;11.36;41.09;98528.40;1735961;80;21497;-71
2022/03/29 06:46:42;;;;;;;28.35;11.97;;;;;;;11.48;41.25;98523.42;1770199;81;20995;-77
2022/03/29 06:49:09;;;;;;;27.13;12.75;;;;;;;11.64;41.20;98523.48;1770169;81;21234;-77
2022/03/29 06:51:40;;;;;;;27.62;12.03;;;;;;;11.78;41.06;98525.84;1769437;81;21001;-70
2022/03/29 06:54:12;;;;;;;21.50;11.30;;;;;;;11.92;40.92;98523.23;1769742;81;20973;-73
2022/03/29 06:56:39;;;;;;;25.02;11.68;;;;;;;12.07;40.44;98520.27;1769689;81;20933;-71
2022/03/29 06:59:11;;;;;;;24.63;12.53;;;;;;;12.17;40.20;98519.78;1766591;81;21005;-70
2022/03/29 07:01:38;;;;;;;20.17;10.80;;;;;;;12.26;40.25;98513.28;1770206;81;21862;-72
2022/03/29 07:04:07;;;;;;;19.12;10.28;;;;;;;12.36;40.19;98516.08;1769984;81;21054;-70
2022/03/29 07:06:37;;;;;;;19.85;11.43;;;;;;;12.45;39.84;98518.09;1766686;81;20949;-69
2022/03/29 07:11:55;;;;;;;17.23;9.90;;;;;;;12.59;40.29;98514.08;1768662;80;21037;-72
2022/03/29 07:14:22;;;;;;;18.95;9.98;;;;;;;12.76;40.19;98510.91;1769918;81;21101;-68
2022/03/29 07:16:50;;;;;;;18.73;8.83;;;;;;;12.87;39.62;98512.55;1769934;80;20959;-72
2022/03/29 07:19:17;;;;;;;17.92;9.60;;;;;;;12.96;39.51;98517.08;1770093;81;20965;-70
2022/03/29 07:21:48;;;;;;;24.72;9.63;;;;;;;13.01;39.34;98503.78;1770207;81;20997;-73
2022/03/29 07:24:15;;;;;;;14.78;8.45;;;;;;;13.06;39.23;98499.92;1770217;81;21490;-70
2022/03/29 07:26:46;;;;;;;16.20;9.03;;;;;;;13.12;39.47;98499.84;1763871;81;20913;-73
2022/03/29 07:29:14;;;;;;;19.73;9.20;;;;;;;13.20;39.51;98502.77;1769976;81;21082;-70
2022/03/29 07:31:45;;;;;;;19.80;9.03;;;;;;;13.32;39.30;98499.87;1770243;81;21127;-69
2022/03/29 07:34:25;;;;;;;22.25;8.73;;;;;;;13.46;39.31;98502.71;1770070;81;21447;-69
2022/03/29 07:36:56;;;;;;;16.15;9.33;;;;;;;13.60;38.68;98500.25;1750457;81;21505;-70
2022/03/29 07:39:21;;;;;;;16.50;8.90;;;;;;;13.65;38.74;98501.13;1770118;81;21137;-68
2022/03/29 07:42:00;;;;;;;16.35;7.80;;;;;;;13.69;38.61;98488.95;1763725;81;21072;-72
2022/03/29 07:44:38;;;;;;;18.00;8.20;;;;;;;13.81;38.44;98489.95;1750378;81;20985;-70
2022/03/29 07:47:06;;;;;;;17.77;8.43;;;;;;;13.96;38.94;98489.62;1769103;80;20917;-71
2022/03/29 07:49:37;;;;;;;14.98;7.40;;;;;;;14.13;38.56;98485.56;1767900;81;20925;-72
2022/03/29 07:52:07;;;;;;;18.62;7.83;;;;;;;14.32;37.80;98486.66;1768862;81;21158;-72
2022/03/29 07:54:34;;;;;;;21.85;7.72;;;;;;;14.35;37.74;98482.57;1764306;81;21017;-71
2022/03/29 07:57:09;;;;;;;15.13;6.97;;;;;;;14.40;37.73;98473.74;1763445;81;20949;-73
2022/03/29 07:59:38;;;;;;;13.98;5.45;;;;;;;14.48;37.96;98473.45;1764634;80;20946;-74
2022/03/29 08:02:09;;;;;;;18.27;7.30;;;;;;;14.60;37.75;98479.38;1764832;80;21056;-69
2022/03/29 08:04:39;;;;;;;12.98;6.25;;;;;;;14.70;37.67;98475.77;1743266;81;21280;-74
2022/03/29 08:07:18;;;;;;;13.78;5.80;;;;;;;14.86;37.61;98475.61;1763927;81;21379;-71
2022/03/29 08:09:48;;;;;;;16.82;6.75;;;;;;;15.04;37.29;98478.66;1764909;81;20934;-72
2022/03/29 08:12:16;;;;;;;13.60;6.08;;;;;;;15.17;37.25;98470.07;1763577;81;21513;-72
2022/03/29 08:14:46;;;;;;;13.05;5.78;;;;;;;15.28;37.27;98451.60;1764371;80;21001;-73
2022/03/29 08:17:23;;;;;;;27.70;9.38;;;;;;;15.38;37.04;98465.97;1759169;81;21403;-71
2022/03/29 08:19:54;;;;;;;16.57;6.92;;;;;;;15.40;36.83;98451.94;1764516;81;21036;-68
2022/03/29 08:22:23;;;;;;;14.38;6.30;;;;;;;15.44;37.24;98449.18;1764408;81;21419;-72
2022/03/29 08:24:54;;;;;;;13.32;6.22;;;;;;;15.52;37.00;98447.30;1743091;81;21036;-70
2022/03/29 08:27:23;;;;;;;14.65;7.10;;;;;;;15.55;37.21;98440.41;1764413;81;20942;-69
2022/03/29 08:29:50;;;;;;;24.37;8.03;;;;;;;15.63;37.22;98441.84;1764412;81;21252;-71
2022/03/29 08:32:21;;;;;;;12.18;6.55;;;;;;;15.72;37.38;98445.13;1768366;81;20950;-72
2022/03/29 08:34:59;;;;;;;16.40;6.33;;;;;;;15.87;37.46;98436.92;1760626;81;20967;-71
2022/03/29 08:37:28;;;;;;;18.60;6.65;;;;;;;15.94;37.02;98439.19;1764038;81;21019;-70
2022/03/29 08:40:09;;;;;;;22.10;7.55;;;;;;;15.99;37.38;98442.23;1739278;81;21501;-72
2022/03/29 08:42:42;;;;;;;12.15;6.55;;;;;;;16.05;37.21;98437.13;1764318;81;20914;-70
2022/03/29 08:45:11;;;;;;;15.72;6.95;;;;;;;16.09;37.17;98428.22;1764399;80;20934;-72
2022/03/29 08:47:41;;;;;;;20.82;7.47;;;;;;;16.15;36.96;98432.84;1763192;81;21537;-71
2022/03/29 08:50:15;;;;;;;19.90;7.35;;;;;;;16.16;36.67;98419.14;1764752;81;21084;-71
2022/03/29 08:52:47;;;;;;;17.95;7.03;;;;;;;16.08;37.11;98420.27;1744498;81;21447;-72
2022/03/29 08:55:16;;;;;;;14.18;6.60;;;;;;;16.12;37.16;98414.16;1765391;81;21328;-72
2022/03/29 08:57:55;;;;;;;14.55;6.58;;;;;;;16.16;38.05;98413.59;1764974;81;21458;-70
2022/03/29 09:00:26;;;;;;;20.12;6.95;;;;;;;16.34;37.99;98407.37;1765103;81;21399;-71
2022/03/29 09:02:53;;;;;;;25.62;8.95;;;;;;;16.50;37.46;98405.67;1765125;81;21431;-68
2022/03/29 09:05:30;;;;;;;19.23;7.70;;;;;;;16.53;37.86;98399.36;1761278;81;20921;-71
2022/03/29 09:08:03;;;;;;;13.78;7.17;;;;;;;16.58;37.96;98419.04;1765068;81;21629;-74
2022/03/29 09:10:48;;;;;;;14.23;7.92;;;;;;;16.59;37.55;98407.53;1765280;81;20970;-69
2022/03/29 09:13:27;;;;;;;13.93;7.40;;;;;;;16.57;37.71;98397.97;1767921;80;20961;-71
2022/03/29 09:16:01;;;;;;;21.70;8.55;;;;;;;16.61;38.09;98399.61;1762391;81;20925;-73
2022/03/29 09:18:31;;;;;;;15.40;7.58;;;;;;;16.62;37.35;98390.06;1765151;81;20990;-71
2022/03/29 09:21:17;;;;;;;14.38;7.72;;;;;;;16.45;37.60;98384.60;1765399;81;22737;-72
2022/03/29 09:24:11;;;;;;;14.95;8.80;;;;;;;16.29;38.15;98379.36;1764214;81;20906;-72
2022/03/29 09:26:45;;;;;;;20.25;7.30;;;;;;;16.33;38.40;98376.58;1742569;81;21423;-72
2022/03/29 09:32:09;;;;;;;14.13;7.20;;;;;;;16.65;38.46;98374.61;1765221;81;20988;-70
2022/03/29 09:34:44;;;;;;;15.13;6.35;;;;;;;16.82;37.84;98361.17;1761010;81;20918;-72
2022/03/29 09:37:13;;;;;;;14.53;6.80;;;;;;;16.99;37.90;98347.13;1690459;81;21439;-70
2022/03/29 09:39:44;;;;;;;11.28;5.92;;;;;;;17.13;37.68;98344.41;1739961;81;21842;-71
2022/03/29 09:42:17;;;;;;;14.50;6.55;;;;;;;17.25;37.37;98338.26;1765026;81;20958;-73
2022/03/29 09:44:53;;;;;;;24.02;7.00;;;;;;;17.31;37.67;98322.78;1765522;81;20937;-77
2022/03/29 09:47:33;;;;;;;8.93;5.78;;;;;;;17.38;37.35;98326.17;1761616;81;20870;-71
2022/03/29 09:50:06;;;;;;;12.82;5.40;;;;;;;17.42;37.09;98331.13;1765130;81;20914;-71
2022/03/29 09:52:44;;;;;;;15.65;6.00;;;;;;;17.40;37.42;98327.94;1768680;81;21149;-72
2022/03/29 09:55:25;;;;;;;10.28;5.75;;;;;;;17.46;37.68;98337.52;1764138;81;20913;-73
2022/03/29 09:58:00;;;;;;;21.55;6.40;;;;;;;17.51;37.33;98326.57;1764744;81;21008;-72
2022/03/29 10:00:41;;;;;;;11.90;6.25;;;;;;;17.55;37.42;98341.89;1760777;81;20934;-74
2022/03/29 10:03:09;;;;;;;9.25;5.87;;;;;;;17.51;37.02;98332.95;1762552;81;20993;-72
2022/03/29 10:05:39;;;;;;;13.88;6.75;;;;;;;17.35;37.42;98325.58;1764504;81;20993;-69
2022/03/29 10:11:10;;;;;;;12.78;5.90;;;;;;;17.19;38.10;98317.58;1764597;81;20945;-70
2022/03/29 10:13:43;;;;;;;12.82;7.40;;;;;;;17.04;38.83;98320.31;1765738;81;20934;-72
2022/03/29 10:16:16;;;;;;;11.25;6.62;;;;;;;17.04;38.49;98315.52;1764208;80;20914;-72
2022/03/29 10:18:49;;;;;;;12.07;6.47;;;;;;;17.01;38.11;98302.41;1768230;81;20996;-70
2022/03/29 10:21:18;;;;;;;13.60;6.42;;;;;;;16.87;38.42;98306.55;1764391;81;21498;-72
2022/03/29 10:23:57;;;;;;;12.30;5.83;;;;;;;16.82;38.92;98297.20;1760860;81;21564;-71
2022/03/29 10:26:26;;;;;;;11.80;6.80;;;;;;;16.94;39.36;98294.65;1764428;81;21837;-70
2022/03/29 10:28:56;;;;;;;17.52;8.43;;;;;;;17.09;38.46;98306.05;1763919;81;20965;-72
2022/03/29 10:31:36;;;;;;;16.67;6.80;;;;;;;17.06;38.03;98289.31;1764354;81;20930;-70
2022/03/29 10:34:25;;;;;;;14.68;6.92;;;;;;;17.04;38.22;98286.92;1764053;81;20898;-72
2022/03/29 10:37:21;;;;;;;19.98;6.65;;;;;;;17.14;38.43;98279.81;1768192;81;21419;-73
2022/03/29 10:39:57;;;;;;;11.97;7.10;;;;;;;17.34;37.98;98268.30;1764484;81;21189;-71
2022/03/29 10:42:39;;;;;;;11.25;6.37;;;;;;;17.52;37.36;98259.94;1764644;81;21009;-72
2022/03/29 10:45:28;;;;;;;17.37;7.58;;;;;;;17.66;37.18;98248.63;1760663;81;20920;-71
2022/03/29 10:48:09;;;;;;;11.18;7.58;;;;;;;17.76;36.32;98256.14;1743373;81;21033;-72
2022/03/29 10:50:57;;;;;;;11.33;6.90;;;;;;;17.65;35.95;98249.20;1761078;81;21474;-71
2022/03/29 10:53:35;;;;;;;16.17;8.00;;;;;;;17.54;36.55;98245.03;1764279;81;21144;-73
2022/03/29 10:56:23;;;;;;;11.00;7.50;;;;;;;17.52;35.78;98256.56;1764428;81;20909;-70
2022/03/29 10:59:12;;;;;;;22.93;8.58;;;;;;;17.45;35.74;98240.47;1762975;81;20935;-71
2022/03/29 11:01:45;;;;;;;18.65;8.35;;;;;;;17.28;35.37;98241.47;1764221;81;20968;-72
2022/03/29 11:04:20;;;;;;;11.73;6.10;;;;;;;17.07;35.83;98231.88;1764677;80;21029;-71
2022/03/29 11:07:12;;;;;;;13.70;8.45;;;;;;;16.93;36.25;98238.20;1764561;80;20930;-71
2022/03/29 11:09:46;;;;;;;16.87;7.50;;;;;;;16.85;36.76;98231.05;1764367;81;20882;-73
2022/03/29 11:12:49;;;;;;;17.27;8.48;;;;;;;16.76;37.24;98234.20;1764507;81;20921;-72
2022/03/29 11:15:35;;;;;;;25.90;11.70;;;;;;;16.67;37.31;98241.52;1764240;81;21529;-73
2022/03/29 11:18:04;;;;;;;135.78;20.12;;;;;;;16.55;38.62;98299.66;1764776;80;20979;-71
2022/03/29 11:20:34;;;;;;;44.38;16.52;;;;;;;16.05;45.66;98372.63;1763391;81;21204;-70
2022/03/29 11:23:09;;;;;;;44.48;21.35;;;;;;;15.09;50.55;98398.45;1764439;81;20926;-73
2022/03/29 11:25:43;;;;;;;51.73;25.23;;;;;;;13.92;60.77;98386.33;1762258;81;21063;-71
2022/03/29 11:28:16;;;;;;;51.88;28.77;;;;;;;12.83;72.62;98378.97;1764377;81;21541;-74
2022/03/29 11:30:45;;;;;;;46.20;26.10;;;;;;;12.00;72.04;98387.57;1764635;81;21423;-74
2022/03/29 11:33:17;;;;;;;50.43;23.30;;;;;;;11.50;72.91;98374.92;1764591;81;21228;-74
2022/03/29 11:35:57;;;;;;;28.57;16.50;;;;;;;11.26;73.32;98379.42;1764550;81;20977;-72
2022/03/29 11:38:30;;;;;;;36.73;15.48;;;;;;;11.11;74.90;98370.53;1726536;82;21070;-71
2022/03/29 11:41:10;;;;;;;38.88;16.70;;;;;;;11.03;75.65;98367.59;1683559;84;20919;-72
2022/03/29 11:43:44;;;;;;;41.48;19.50;;;;;;;10.93;78.62;98369.48;1764356;81;20870;-72
2022/03/29 11:46:13;;;;;;;39.53;18.25;;;;;;;10.85;77.07;98380.08;1764835;81;21195;-72
2022/03/29 11:48:46;;;;;;;36.80;18.15;;;;;;;10.77;76.21;98387.31;1764408;80;21459;-72
2022/03/29 11:51:15;;;;;;;36.50;19.15;;;;;;;10.71;76.33;98376.53;1764526;81;20973;-71
2022/03/29 11:53:58;;;;;;;40.10;17.27;;;;;;;10.74;76.20;98388.02;1760821;81;20986;-73
2022/03/29 11:56:28;;;;;;;47.45;18.32;;;;;;;10.73;77.18;98395.47;1764602;81;21076;-73
2022/03/29 11:58:56;;;;;;;39.23;18.25;;;;;;;10.72;77.73;98389.75;1764511;81;22013;-72
2022/03/29 12:01:31;;;;;;;32.58;18.00;;;;;;;10.59;79.29;98394.49;1764683;81;21427;-71